sensor_id;sensor_type;location;lat;lon;timestamp;P1;durP1;ratioP1;P2;durP2;ratioP2
74963;SDS011;63521;51.900;4.748;2023-04-05T00:01:22;4.30;;;2.20;;
74963;SDS011;63521;51.900;4.748;2023-04-05T00:03:50;3.92;;;2.25;;
74963;SDS011;63521;51.900;4.748;2023-04-05T00:06:19;2.88;;;1.75;;
74963;SDS011;63521;51.900;4.748;2023-04-05T00:08:50;3.75;;;1.90;;
74963;SDS011;63521;51.900;4.748;2023-04-05T00:11:19;4.00;;;1.98;;
74963;SDS011;63521;51.900;4.748;2023-04-05T00:13:48;3.42;;;1.90;;
74963;SDS011;63521;51.900;4.748;2023-04-05T00:16:17;3.25;;;1.95;;
74963;SDS011;63521;51.900;4.748;2023-04-05T00:18:46;3.00;;;1.98;;
74963;SDS011;63521;51.900;4.748;2023-04-05T00:21:15;4.35;;;1.95;;
74963;SDS011;63521;51.900;4.748;2023-04-05T00:23:51;3.03;;;2.00;;
74963;SDS011;63521;51.900;4.748;2023-04-05T00:26:18;3.47;;;1.88;;
74963;SDS011;63521;51.900;4.748;2023-04-05T00:28:44;4.47;;;2.20;;
74963;SDS011;63521;51.900;4.748;2023-04-05T00:31:10;3.92;;;2.30;;
74963;SDS011;63521;51.900;4.748;2023-04-05T00:33:36;5.60;;;2.42;;
74963;SDS011;63521;51.900;4.748;2023-04-05T00:36:34;3.17;;;1.98;;
74963;SDS011;63521;51.900;4.748;2023-04-05T00:38:53;2.83;;;1.83;;
74963;SDS011;63521;51.900;4.748;2023-04-05T00:41:19;3.60;;;2.08;;
74963;SDS011;63521;51.900;4.748;2023-04-05T00:43:44;2.65;;;1.85;;
74963;SDS011;63521;51.900;4.748;2023-04-05T00:46:10;3.50;;;1.92;;
74963;SDS011;63521;51.900;4.748;2023-04-05T00:48:35;3.72;;;2.05;;
74963;SDS011;63521;51.900;4.748;2023-04-05T00:51:02;3.80;;;1.90;;
74963;SDS011;63521;51.900;4.748;2023-04-05T00:53:27;3.13;;;2.03;;
74963;SDS011;63521;51.900;4.748;2023-04-05T00:55:54;3.97;;;2.10;;
74963;SDS011;63521;51.900;4.748;2023-04-05T00:58:20;3.35;;;1.80;;
74963;SDS011;63521;51.900;4.748;2023-04-05T01:01:02;2.70;;;1.80;;
74963;SDS011;63521;51.900;4.748;2023-04-05T01:03:37;4.22;;;2.28;;
74963;SDS011;63521;51.900;4.748;2023-04-05T01:06:12;3.50;;;1.73;;
74963;SDS011;63521;51.900;4.748;2023-04-05T01:09:07;3.83;;;2.00;;
74963;SDS011;63521;51.900;4.748;2023-04-05T01:11:53;4.50;;;1.98;;
74963;SDS011;63521;51.900;4.748;2023-04-05T01:14:21;5.10;;;2.28;;
74963;SDS011;63521;51.900;4.748;2023-04-05T01:16:47;3.22;;;1.90;;
74963;SDS011;63521;51.900;4.748;2023-04-05T01:19:14;3.75;;;2.08;;
74963;SDS011;63521;51.900;4.748;2023-04-05T01:21:43;3.50;;;1.83;;
74963;SDS011;63521;51.900;4.748;2023-04-05T01:27:03;3.97;;;1.90;;
74963;SDS011;63521;51.900;4.748;2023-04-05T01:37:38;4.35;;;2.00;;
74963;SDS011;63521;51.900;4.748;2023-04-05T01:40:05;4.13;;;2.10;;
74963;SDS011;63521;51.900;4.748;2023-04-05T01:42:32;3.47;;;2.08;;
74963;SDS011;63521;51.900;4.748;2023-04-05T01:44:58;3.53;;;1.83;;
74963;SDS011;63521;51.900;4.748;2023-04-05T01:47:23;4.07;;;1.85;;
74963;SDS011;63521;51.900;4.748;2023-04-05T01:49:48;5.93;;;2.33;;
74963;SDS011;63521;51.900;4.748;2023-04-05T01:52:14;4.97;;;2.80;;
74963;SDS011;63521;51.900;4.748;2023-04-05T01:54:39;3.95;;;2.03;;
74963;SDS011;63521;51.900;4.748;2023-04-05T01:57:05;3.70;;;2.05;;
74963;SDS011;63521;51.900;4.748;2023-04-05T01:59:30;4.95;;;2.00;;
74963;SDS011;63521;51.900;4.748;2023-04-05T02:01:56;4.13;;;2.30;;
74963;SDS011;63521;51.900;4.748;2023-04-05T02:04:21;3.95;;;2.28;;
74963;SDS011;63521;51.900;4.748;2023-04-05T02:06:46;3.35;;;2.00;;
74963;SDS011;63521;51.900;4.748;2023-04-05T02:09:12;4.50;;;2.40;;
74963;SDS011;63521;51.900;4.748;2023-04-05T02:11:38;4.45;;;2.03;;
74963;SDS011;63521;51.900;4.748;2023-04-05T02:14:03;5.32;;;2.25;;
74963;SDS011;63521;51.900;4.748;2023-04-05T02:16:29;4.07;;;2.08;;
74963;SDS011;63521;51.900;4.748;2023-04-05T02:18:57;3.63;;;2.40;;
74963;SDS011;63521;51.900;4.748;2023-04-05T02:21:24;4.88;;;2.38;;
74963;SDS011;63521;51.900;4.748;2023-04-05T02:23:50;3.75;;;2.10;;
74963;SDS011;63521;51.900;4.748;2023-04-05T02:26:16;5.10;;;2.20;;
74963;SDS011;63521;51.900;4.748;2023-04-05T02:28:42;5.55;;;2.38;;
74963;SDS011;63521;51.900;4.748;2023-04-05T02:31:10;4.70;;;2.30;;
74963;SDS011;63521;51.900;4.748;2023-04-05T02:33:37;4.60;;;2.50;;
74963;SDS011;63521;51.900;4.748;2023-04-05T02:36:03;5.18;;;2.20;;
74963;SDS011;63521;51.900;4.748;2023-04-05T02:38:39;3.97;;;2.10;;
74963;SDS011;63521;51.900;4.748;2023-04-05T02:41:08;3.63;;;2.00;;
74963;SDS011;63521;51.900;4.748;2023-04-05T02:43:36;3.50;;;2.05;;
74963;SDS011;63521;51.900;4.748;2023-04-05T02:46:02;3.72;;;2.30;;
74963;SDS011;63521;51.900;4.748;2023-04-05T02:48:27;4.88;;;2.20;;
74963;SDS011;63521;51.900;4.748;2023-04-05T02:50:53;5.30;;;2.20;;
74963;SDS011;63521;51.900;4.748;2023-04-05T02:53:19;4.10;;;2.25;;
74963;SDS011;63521;51.900;4.748;2023-04-05T02:55:54;4.13;;;2.35;;
74963;SDS011;63521;51.900;4.748;2023-04-05T02:58:24;3.10;;;2.10;;
74963;SDS011;63521;51.900;4.748;2023-04-05T03:00:50;3.55;;;2.20;;
74963;SDS011;63521;51.900;4.748;2023-04-05T03:03:20;3.40;;;2.03;;
74963;SDS011;63521;51.900;4.748;2023-04-05T03:05:46;3.65;;;2.05;;
74963;SDS011;63521;51.900;4.748;2023-04-05T03:08:13;4.30;;;2.17;;
74963;SDS011;63521;51.900;4.748;2023-04-05T03:10:43;4.13;;;2.15;;
74963;SDS011;63521;51.900;4.748;2023-04-05T03:13:12;3.55;;;2.20;;
74963;SDS011;63521;51.900;4.748;2023-04-05T03:15:37;4.30;;;2.70;;
74963;SDS011;63521;51.900;4.748;2023-04-05T03:18:03;5.93;;;2.45;;
74963;SDS011;63521;51.900;4.748;2023-04-05T03:20:28;4.28;;;2.08;;
74963;SDS011;63521;51.900;4.748;2023-04-05T03:22:54;4.47;;;2.45;;
74963;SDS011;63521;51.900;4.748;2023-04-05T03:25:20;3.63;;;1.98;;
74963;SDS011;63521;51.900;4.748;2023-04-05T03:27:45;3.80;;;2.58;;
74963;SDS011;63521;51.900;4.748;2023-04-05T03:30:11;4.15;;;2.25;;
74963;SDS011;63521;51.900;4.748;2023-04-05T03:32:36;5.22;;;2.60;;
74963;SDS011;63521;51.900;4.748;2023-04-05T03:35:02;6.38;;;2.70;;
74963;SDS011;63521;51.900;4.748;2023-04-05T03:37:27;5.97;;;2.22;;
74963;SDS011;63521;51.900;4.748;2023-04-05T03:39:52;3.55;;;2.17;;
74963;SDS011;63521;51.900;4.748;2023-04-05T03:42:18;3.97;;;2.10;;
74963;SDS011;63521;51.900;4.748;2023-04-05T03:44:43;4.47;;;2.40;;
74963;SDS011;63521;51.900;4.748;2023-04-05T03:47:09;4.43;;;2.28;;
74963;SDS011;63521;51.900;4.748;2023-04-05T03:49:38;3.65;;;2.13;;
74963;SDS011;63521;51.900;4.748;2023-04-05T03:52:03;3.70;;;2.08;;
74963;SDS011;63521;51.900;4.748;2023-04-05T03:54:28;4.35;;;2.30;;
74963;SDS011;63521;51.900;4.748;2023-04-05T03:56:54;4.05;;;2.15;;
74963;SDS011;63521;51.900;4.748;2023-04-05T03:59:20;3.60;;;2.20;;
74963;SDS011;63521;51.900;4.748;2023-04-05T04:01:45;3.88;;;2.20;;
74963;SDS011;63521;51.900;4.748;2023-04-05T04:04:11;3.25;;;2.22;;
74963;SDS011;63521;51.900;4.748;2023-04-05T04:06:37;4.68;;;2.20;;
74963;SDS011;63521;51.900;4.748;2023-04-05T04:09:03;3.50;;;2.03;;
74963;SDS011;63521;51.900;4.748;2023-04-05T04:11:30;4.97;;;2.33;;
74963;SDS011;63521;51.900;4.748;2023-04-05T04:13:56;4.18;;;2.28;;
74963;SDS011;63521;51.900;4.748;2023-04-05T04:16:21;4.20;;;2.33;;
74963;SDS011;63521;51.900;4.748;2023-04-05T04:18:47;4.78;;;2.22;;
74963;SDS011;63521;51.900;4.748;2023-04-05T04:21:13;7.40;;;2.85;;
74963;SDS011;63521;51.900;4.748;2023-04-05T04:23:40;4.10;;;2.13;;
74963;SDS011;63521;51.900;4.748;2023-04-05T04:26:10;4.65;;;2.33;;
74963;SDS011;63521;51.900;4.748;2023-04-05T04:28:35;5.50;;;2.67;;
74963;SDS011;63521;51.900;4.748;2023-04-05T04:31:03;6.22;;;2.88;;
74963;SDS011;63521;51.900;4.748;2023-04-05T04:33:29;4.97;;;2.13;;
74963;SDS011;63521;51.900;4.748;2023-04-05T04:35:55;4.40;;;2.35;;
74963;SDS011;63521;51.900;4.748;2023-04-05T04:38:20;5.95;;;2.58;;
74963;SDS011;63521;51.900;4.748;2023-04-05T04:40:49;4.72;;;2.35;;
74963;SDS011;63521;51.900;4.748;2023-04-05T04:43:17;5.00;;;2.40;;
74963;SDS011;63521;51.900;4.748;2023-04-05T04:45:43;4.68;;;2.40;;
74963;SDS011;63521;51.900;4.748;2023-04-05T04:48:12;5.03;;;2.28;;
74963;SDS011;63521;51.900;4.748;2023-04-05T04:50:44;4.07;;;2.20;;
74963;SDS011;63521;51.900;4.748;2023-04-05T04:53:11;4.90;;;2.03;;
74963;SDS011;63521;51.900;4.748;2023-04-05T04:55:38;4.45;;;2.30;;
74963;SDS011;63521;51.900;4.748;2023-04-05T04:58:06;5.05;;;2.40;;
74963;SDS011;63521;51.900;4.748;2023-04-05T05:00:39;4.57;;;2.10;;
74963;SDS011;63521;51.900;4.748;2023-04-05T05:03:06;3.83;;;2.40;;
74963;SDS011;63521;51.900;4.748;2023-04-05T05:05:32;3.65;;;2.00;;
74963;SDS011;63521;51.900;4.748;2023-04-05T05:07:58;5.03;;;2.10;;
74963;SDS011;63521;51.900;4.748;2023-04-05T05:10:23;3.90;;;2.50;;
74963;SDS011;63521;51.900;4.748;2023-04-05T05:12:48;4.63;;;2.17;;
74963;SDS011;63521;51.900;4.748;2023-04-05T05:15:15;5.40;;;2.20;;
74963;SDS011;63521;51.900;4.748;2023-04-05T05:17:40;3.33;;;2.10;;
74963;SDS011;63521;51.900;4.748;2023-04-05T05:20:06;3.65;;;1.95;;
74963;SDS011;63521;51.900;4.748;2023-04-05T05:22:34;4.10;;;2.33;;
74963;SDS011;63521;51.900;4.748;2023-04-05T05:25:00;3.33;;;2.00;;
74963;SDS011;63521;51.900;4.748;2023-04-05T05:27:26;3.72;;;2.28;;
74963;SDS011;63521;51.900;4.748;2023-04-05T05:29:52;4.75;;;2.30;;
74963;SDS011;63521;51.900;4.748;2023-04-05T05:32:17;4.70;;;2.28;;
74963;SDS011;63521;51.900;4.748;2023-04-05T05:34:43;2.63;;;1.77;;
74963;SDS011;63521;51.900;4.748;2023-04-05T05:37:09;4.30;;;2.20;;
74963;SDS011;63521;51.900;4.748;2023-04-05T05:39:36;4.20;;;1.90;;
74963;SDS011;63521;51.900;4.748;2023-04-05T05:42:01;3.92;;;2.17;;
74963;SDS011;63521;51.900;4.748;2023-04-05T05:44:27;4.50;;;2.45;;
74963;SDS011;63521;51.900;4.748;2023-04-05T05:46:53;3.42;;;2.10;;
74963;SDS011;63521;51.900;4.748;2023-04-05T05:49:18;3.95;;;2.30;;
74963;SDS011;63521;51.900;4.748;2023-04-05T05:51:44;3.85;;;2.05;;
74963;SDS011;63521;51.900;4.748;2023-04-05T05:54:10;5.05;;;2.40;;
74963;SDS011;63521;51.900;4.748;2023-04-05T05:56:35;3.72;;;2.00;;
74963;SDS011;63521;51.900;4.748;2023-04-05T05:59:01;3.95;;;2.13;;
74963;SDS011;63521;51.900;4.748;2023-04-05T06:01:26;4.38;;;2.20;;
74963;SDS011;63521;51.900;4.748;2023-04-05T06:03:53;4.03;;;2.28;;
74963;SDS011;63521;51.900;4.748;2023-04-05T06:06:22;4.50;;;2.15;;
74963;SDS011;63521;51.900;4.748;2023-04-05T06:08:47;2.85;;;1.80;;
74963;SDS011;63521;51.900;4.748;2023-04-05T06:11:17;4.57;;;2.38;;
74963;SDS011;63521;51.900;4.748;2023-04-05T06:13:43;5.45;;;2.28;;
74963;SDS011;63521;51.900;4.748;2023-04-05T06:16:08;4.22;;;1.95;;
74963;SDS011;63521;51.900;4.748;2023-04-05T06:18:33;4.20;;;2.30;;
74963;SDS011;63521;51.900;4.748;2023-04-05T06:20:59;3.80;;;2.10;;
74963;SDS011;63521;51.900;4.748;2023-04-05T06:23:24;6.15;;;2.58;;
74963;SDS011;63521;51.900;4.748;2023-04-05T06:25:50;3.63;;;2.05;;
74963;SDS011;63521;51.900;4.748;2023-04-05T06:28:15;3.15;;;2.00;;
74963;SDS011;63521;51.900;4.748;2023-04-05T06:30:40;3.92;;;2.03;;
74963;SDS011;63521;51.900;4.748;2023-04-05T06:33:06;4.25;;;2.42;;
74963;SDS011;63521;51.900;4.748;2023-04-05T06:35:31;4.45;;;2.22;;
74963;SDS011;63521;51.900;4.748;2023-04-05T06:37:57;5.05;;;2.30;;
74963;SDS011;63521;51.900;4.748;2023-04-05T06:40:22;4.00;;;2.03;;
74963;SDS011;63521;51.900;4.748;2023-04-05T06:42:48;3.50;;;1.98;;
74963;SDS011;63521;51.900;4.748;2023-04-05T06:45:13;4.55;;;2.25;;
74963;SDS011;63521;51.900;4.748;2023-04-05T06:47:39;3.72;;;2.13;;
74963;SDS011;63521;51.900;4.748;2023-04-05T06:50:05;6.85;;;2.20;;
74963;SDS011;63521;51.900;4.748;2023-04-05T06:52:32;3.50;;;2.13;;
74963;SDS011;63521;51.900;4.748;2023-04-05T06:55:02;3.45;;;2.08;;
74963;SDS011;63521;51.900;4.748;2023-04-05T06:57:29;3.80;;;2.20;;
74963;SDS011;63521;51.900;4.748;2023-04-05T06:59:54;4.93;;;2.45;;
74963;SDS011;63521;51.900;4.748;2023-04-05T07:02:20;3.28;;;1.92;;
74963;SDS011;63521;51.900;4.748;2023-04-05T07:04:46;3.75;;;2.30;;
74963;SDS011;63521;51.900;4.748;2023-04-05T07:07:12;4.05;;;2.03;;
74963;SDS011;63521;51.900;4.748;2023-04-05T07:09:38;4.35;;;2.40;;
74963;SDS011;63521;51.900;4.748;2023-04-05T07:12:04;3.80;;;2.35;;
74963;SDS011;63521;51.900;4.748;2023-04-05T07:14:31;4.43;;;2.10;;
74963;SDS011;63521;51.900;4.748;2023-04-05T07:16:57;4.38;;;2.17;;
74963;SDS011;63521;51.900;4.748;2023-04-05T07:19:22;3.78;;;2.00;;
74963;SDS011;63521;51.900;4.748;2023-04-05T07:21:47;5.00;;;2.40;;
74963;SDS011;63521;51.900;4.748;2023-04-05T07:24:13;4.15;;;2.13;;
74963;SDS011;63521;51.900;4.748;2023-04-05T07:26:38;4.47;;;2.13;;
74963;SDS011;63521;51.900;4.748;2023-04-05T07:29:05;4.75;;;2.38;;
74963;SDS011;63521;51.900;4.748;2023-04-05T07:31:32;4.63;;;2.35;;
74963;SDS011;63521;51.900;4.748;2023-04-05T07:33:59;5.05;;;2.78;;
74963;SDS011;63521;51.900;4.748;2023-04-05T07:36:24;4.22;;;2.55;;
74963;SDS011;63521;51.900;4.748;2023-04-05T07:38:57;4.90;;;2.60;;
74963;SDS011;63521;51.900;4.748;2023-04-05T07:41:23;2.97;;;1.90;;
74963;SDS011;63521;51.900;4.748;2023-04-05T07:43:49;3.53;;;2.30;;
74963;SDS011;63521;51.900;4.748;2023-04-05T07:46:17;4.65;;;2.47;;
74963;SDS011;63521;51.900;4.748;2023-04-05T07:48:42;3.72;;;2.33;;
74963;SDS011;63521;51.900;4.748;2023-04-05T07:51:11;4.65;;;2.45;;
74963;SDS011;63521;51.900;4.748;2023-04-05T07:53:36;4.57;;;2.17;;
74963;SDS011;63521;51.900;4.748;2023-04-05T07:56:06;4.20;;;2.58;;
74963;SDS011;63521;51.900;4.748;2023-04-05T07:58:32;3.67;;;2.25;;
74963;SDS011;63521;51.900;4.748;2023-04-05T08:00:59;3.20;;;2.00;;
74963;SDS011;63521;51.900;4.748;2023-04-05T08:03:27;3.97;;;2.00;;
74963;SDS011;63521;51.900;4.748;2023-04-05T08:05:54;3.45;;;2.00;;
74963;SDS011;63521;51.900;4.748;2023-04-05T08:08:20;3.90;;;2.30;;
74963;SDS011;63521;51.900;4.748;2023-04-05T08:10:50;2.13;;;1.80;;
74963;SDS011;63521;51.900;4.748;2023-04-05T08:13:15;3.47;;;2.38;;
74963;SDS011;63521;51.900;4.748;2023-04-05T08:15:41;3.25;;;1.80;;
74963;SDS011;63521;51.900;4.748;2023-04-05T08:18:06;3.95;;;2.00;;
74963;SDS011;63521;51.900;4.748;2023-04-05T08:20:31;3.72;;;2.28;;
74963;SDS011;63521;51.900;4.748;2023-04-05T08:23:02;3.90;;;2.20;;
74963;SDS011;63521;51.900;4.748;2023-04-05T08:25:28;2.75;;;1.88;;
74963;SDS011;63521;51.900;4.748;2023-04-05T08:27:54;3.72;;;2.53;;
74963;SDS011;63521;51.900;4.748;2023-04-05T08:30:19;3.53;;;1.85;;
74963;SDS011;63521;51.900;4.748;2023-04-05T08:32:45;2.85;;;1.85;;
74963;SDS011;63521;51.900;4.748;2023-04-05T08:35:10;3.03;;;1.80;;
74963;SDS011;63521;51.900;4.748;2023-04-05T08:37:35;2.88;;;1.83;;
74963;SDS011;63521;51.900;4.748;2023-04-05T08:40:02;3.33;;;2.00;;
74963;SDS011;63521;51.900;4.748;2023-04-05T08:42:28;3.10;;;1.85;;
74963;SDS011;63521;51.900;4.748;2023-04-05T08:44:58;3.92;;;1.92;;
74963;SDS011;63521;51.900;4.748;2023-04-05T08:47:24;2.45;;;1.73;;
74963;SDS011;63521;51.900;4.748;2023-04-05T08:49:51;2.10;;;1.75;;
74963;SDS011;63521;51.900;4.748;2023-04-05T08:52:17;3.60;;;1.95;;
74963;SDS011;63521;51.900;4.748;2023-04-05T08:54:42;2.65;;;1.70;;
74963;SDS011;63521;51.900;4.748;2023-04-05T08:57:08;2.72;;;1.65;;
74963;SDS011;63521;51.900;4.748;2023-04-05T08:59:35;2.67;;;1.67;;
74963;SDS011;63521;51.900;4.748;2023-04-05T09:02:07;2.60;;;1.90;;
74963;SDS011;63521;51.900;4.748;2023-04-05T09:04:43;3.63;;;1.90;;
74963;SDS011;63521;51.900;4.748;2023-04-05T09:07:09;2.83;;;1.88;;
74963;SDS011;63521;51.900;4.748;2023-04-05T09:09:36;3.00;;;1.60;;
74963;SDS011;63521;51.900;4.748;2023-04-05T09:12:05;1.95;;;1.63;;
74963;SDS011;63521;51.900;4.748;2023-04-05T09:14:32;2.25;;;1.42;;
74963;SDS011;63521;51.900;4.748;2023-04-05T09:16:58;2.70;;;1.70;;
74963;SDS011;63521;51.900;4.748;2023-04-05T09:19:26;3.25;;;1.73;;
74963;SDS011;63521;51.900;4.748;2023-04-05T09:21:59;2.03;;;1.50;;
74963;SDS011;63521;51.900;4.748;2023-04-05T09:24:44;2.70;;;1.52;;
74963;SDS011;63521;51.900;4.748;2023-04-05T09:27:14;3.33;;;1.60;;
74963;SDS011;63521;51.900;4.748;2023-04-05T09:29:42;3.55;;;1.70;;
74963;SDS011;63521;51.900;4.748;2023-04-05T09:32:11;3.67;;;1.88;;
74963;SDS011;63521;51.900;4.748;2023-04-05T09:34:38;2.95;;;1.50;;
74963;SDS011;63521;51.900;4.748;2023-04-05T09:37:13;3.85;;;1.70;;
74963;SDS011;63521;51.900;4.748;2023-04-05T09:39:43;2.22;;;1.55;;
74963;SDS011;63521;51.900;4.748;2023-04-05T09:42:10;2.38;;;1.45;;
74963;SDS011;63521;51.900;4.748;2023-04-05T09:44:57;3.50;;;1.80;;
74963;SDS011;63521;51.900;4.748;2023-04-05T09:47:29;2.03;;;1.40;;
74963;SDS011;63521;51.900;4.748;2023-04-05T09:49:57;2.13;;;1.27;;
74963;SDS011;63521;51.900;4.748;2023-04-05T09:52:24;2.38;;;1.60;;
74963;SDS011;63521;51.900;4.748;2023-04-05T09:54:52;3.50;;;2.08;;
74963;SDS011;63521;51.900;4.748;2023-04-05T09:57:20;2.58;;;2.05;;
74963;SDS011;63521;51.900;4.748;2023-04-05T09:59:53;2.92;;;1.50;;
74963;SDS011;63521;51.900;4.748;2023-04-05T10:02:22;2.17;;;1.40;;
74963;SDS011;63521;51.900;4.748;2023-04-05T10:04:48;3.95;;;1.85;;
74963;SDS011;63521;51.900;4.748;2023-04-05T10:07:15;2.22;;;1.27;;
74963;SDS011;63521;51.900;4.748;2023-04-05T10:09:45;2.28;;;1.63;;
74963;SDS011;63521;51.900;4.748;2023-04-05T10:12:15;2.92;;;1.70;;
74963;SDS011;63521;51.900;4.748;2023-04-05T10:14:45;3.33;;;1.50;;
74963;SDS011;63521;51.900;4.748;2023-04-05T10:19:50;2.40;;;1.50;;
74963;SDS011;63521;51.900;4.748;2023-04-05T10:22:42;2.03;;;1.40;;
74963;SDS011;63521;51.900;4.748;2023-04-05T10:25:29;1.75;;;1.23;;
74963;SDS011;63521;51.900;4.748;2023-04-05T10:28:04;1.40;;;1.30;;
74963;SDS011;63521;51.900;4.748;2023-04-05T10:30:34;1.92;;;1.40;;
74963;SDS011;63521;51.900;4.748;2023-04-05T10:38:52;2.22;;;1.45;;
74963;SDS011;63521;51.900;4.748;2023-04-05T10:41:23;2.20;;;1.70;;
74963;SDS011;63521;51.900;4.748;2023-04-05T10:43:49;2.28;;;1.65;;
74963;SDS011;63521;51.900;4.748;2023-04-05T10:46:18;2.53;;;1.85;;
74963;SDS011;63521;51.900;4.748;2023-04-05T10:49:02;3.10;;;1.60;;
74963;SDS011;63521;51.900;4.748;2023-04-05T10:51:30;2.72;;;1.60;;
74963;SDS011;63521;51.900;4.748;2023-04-05T10:53:57;2.47;;;1.40;;
74963;SDS011;63521;51.900;4.748;2023-04-05T10:56:24;1.63;;;1.33;;
74963;SDS011;63521;51.900;4.748;2023-04-05T10:58:51;1.83;;;1.38;;
74963;SDS011;63521;51.900;4.748;2023-04-05T11:01:17;2.25;;;1.73;;
74963;SDS011;63521;51.900;4.748;2023-04-05T11:03:45;2.40;;;1.30;;
74963;SDS011;63521;51.900;4.748;2023-04-05T11:06:22;2.15;;;1.52;;
74963;SDS011;63521;51.900;4.748;2023-04-05T11:08:56;1.48;;;1.35;;
74963;SDS011;63521;51.900;4.748;2023-04-05T11:11:43;1.83;;;1.30;;
74963;SDS011;63521;51.900;4.748;2023-04-05T11:14:20;1.83;;;1.45;;
74963;SDS011;63521;51.900;4.748;2023-04-05T11:16:57;3.08;;;1.60;;
74963;SDS011;63521;51.900;4.748;2023-04-05T11:22:07;2.55;;;1.67;;
74963;SDS011;63521;51.900;4.748;2023-04-05T11:27:31;2.30;;;1.33;;
74963;SDS011;63521;51.900;4.748;2023-04-05T11:30:00;2.35;;;1.40;;
74963;SDS011;63521;51.900;4.748;2023-04-05T11:32:42;2.13;;;1.52;;
74963;SDS011;63521;51.900;4.748;2023-04-05T11:35:13;2.17;;;1.50;;
74963;SDS011;63521;51.900;4.748;2023-04-05T11:47:09;7.68;;;3.92;;
74963;SDS011;63521;51.900;4.748;2023-04-05T11:49:40;7.60;;;3.95;;
74963;SDS011;63521;51.900;4.748;2023-04-05T11:52:10;17.15;;;4.65;;
74963;SDS011;63521;51.900;4.748;2023-04-05T11:54:39;7.93;;;3.83;;
74963;SDS011;63521;51.900;4.748;2023-04-05T11:57:19;8.73;;;3.85;;
74963;SDS011;63521;51.900;4.748;2023-04-05T11:59:48;10.15;;;3.53;;
74963;SDS011;63521;51.900;4.748;2023-04-05T12:02:15;5.38;;;2.72;;
74963;SDS011;63521;51.900;4.748;2023-04-05T12:04:41;9.07;;;2.70;;
74963;SDS011;63521;51.900;4.748;2023-04-05T12:07:06;6.07;;;2.63;;
74963;SDS011;63521;51.900;4.748;2023-04-05T12:09:58;7.65;;;2.88;;
74963;SDS011;63521;51.900;4.748;2023-04-05T12:15:00;6.80;;;2.22;;
74963;SDS011;63521;51.900;4.748;2023-04-05T12:17:45;6.38;;;2.30;;
74963;SDS011;63521;51.900;4.748;2023-04-05T12:20:16;4.03;;;1.80;;
74963;SDS011;63521;51.900;4.748;2023-04-05T12:22:44;3.38;;;1.50;;
74963;SDS011;63521;51.900;4.748;2023-04-05T12:25:10;3.58;;;1.50;;
74963;SDS011;63521;51.900;4.748;2023-04-05T12:27:37;3.03;;;1.45;;
74963;SDS011;63521;51.900;4.748;2023-04-05T12:30:06;4.57;;;1.80;;
74963;SDS011;63521;51.900;4.748;2023-04-05T12:32:39;3.28;;;1.88;;
74963;SDS011;63521;51.900;4.748;2023-04-05T12:35:09;4.68;;;2.13;;
74963;SDS011;63521;51.900;4.748;2023-04-05T12:37:41;4.03;;;1.80;;
74963;SDS011;63521;51.900;4.748;2023-04-05T12:40:07;5.05;;;1.77;;
74963;SDS011;63521;51.900;4.748;2023-04-05T12:42:34;4.22;;;2.03;;
74963;SDS011;63521;51.900;4.748;2023-04-05T12:45:04;4.15;;;2.10;;
74963;SDS011;63521;51.900;4.748;2023-04-05T12:47:34;3.42;;;1.73;;
74963;SDS011;63521;51.900;4.748;2023-04-05T12:50:13;3.28;;;1.88;;
74963;SDS011;63521;51.900;4.748;2023-04-05T12:52:50;4.22;;;1.83;;
74963;SDS011;63521;51.900;4.748;2023-04-05T12:55:19;2.33;;;1.50;;
74963;SDS011;63521;51.900;4.748;2023-04-05T12:57:49;2.65;;;1.55;;
74963;SDS011;63521;51.900;4.748;2023-04-05T13:00:15;2.63;;;1.67;;
74963;SDS011;63521;51.900;4.748;2023-04-05T13:02:41;3.17;;;1.70;;
74963;SDS011;63521;51.900;4.748;2023-04-05T13:05:06;2.47;;;1.50;;
74963;SDS011;63521;51.900;4.748;2023-04-05T13:07:32;3.67;;;1.90;;
74963;SDS011;63521;51.900;4.748;2023-04-05T13:09:57;3.63;;;1.88;;
74963;SDS011;63521;51.900;4.748;2023-04-05T13:12:23;4.40;;;2.00;;
74963;SDS011;63521;51.900;4.748;2023-04-05T13:14:48;4.47;;;2.03;;
74963;SDS011;63521;51.900;4.748;2023-04-05T13:17:14;4.00;;;2.20;;
74963;SDS011;63521;51.900;4.748;2023-04-05T13:19:39;4.22;;;2.15;;
74963;SDS011;63521;51.900;4.748;2023-04-05T13:22:05;4.13;;;2.70;;
74963;SDS011;63521;51.900;4.748;2023-04-05T13:24:30;3.08;;;2.13;;
74963;SDS011;63521;51.900;4.748;2023-04-05T13:26:55;4.50;;;2.22;;
74963;SDS011;63521;51.900;4.748;2023-04-05T13:29:21;4.45;;;2.08;;
74963;SDS011;63521;51.900;4.748;2023-04-05T13:31:49;3.22;;;2.10;;
74963;SDS011;63521;51.900;4.748;2023-04-05T13:34:15;2.90;;;2.28;;
74963;SDS011;63521;51.900;4.748;2023-04-05T13:36:40;4.40;;;2.33;;
74963;SDS011;63521;51.900;4.748;2023-04-05T13:39:06;3.90;;;2.00;;
74963;SDS011;63521;51.900;4.748;2023-04-05T13:41:31;2.38;;;1.70;;
74963;SDS011;63521;51.900;4.748;2023-04-05T13:43:56;4.53;;;1.90;;
74963;SDS011;63521;51.900;4.748;2023-04-05T13:46:22;3.55;;;1.60;;
74963;SDS011;63521;51.900;4.748;2023-04-05T13:48:47;2.50;;;1.65;;
74963;SDS011;63521;51.900;4.748;2023-04-05T13:51:13;3.80;;;2.20;;
74963;SDS011;63521;51.900;4.748;2023-04-05T13:53:38;4.50;;;1.83;;
74963;SDS011;63521;51.900;4.748;2023-04-05T13:56:03;4.88;;;2.10;;
74963;SDS011;63521;51.900;4.748;2023-04-05T13:58:30;3.03;;;1.70;;
74963;SDS011;63521;51.900;4.748;2023-04-05T14:00:56;2.88;;;1.90;;
74963;SDS011;63521;51.900;4.748;2023-04-05T14:03:22;3.20;;;1.90;;
74963;SDS011;63521;51.900;4.748;2023-04-05T14:05:48;2.65;;;1.70;;
74963;SDS011;63521;51.900;4.748;2023-04-05T14:08:15;8.55;;;5.28;;
74963;SDS011;63521;51.900;4.748;2023-04-05T14:10:42;9.75;;;5.93;;
74963;SDS011;63521;51.900;4.748;2023-04-05T14:13:07;9.50;;;5.55;;
74963;SDS011;63521;51.900;4.748;2023-04-05T14:15:33;9.63;;;5.22;;
74963;SDS011;63521;51.900;4.748;2023-04-05T14:17:59;12.75;;;5.97;;
74963;SDS011;63521;51.900;4.748;2023-04-05T14:20:25;11.65;;;6.40;;
74963;SDS011;63521;51.900;4.748;2023-04-05T14:22:51;9.43;;;5.32;;
74963;SDS011;63521;51.900;4.748;2023-04-05T14:25:16;12.43;;;6.20;;
74963;SDS011;63521;51.900;4.748;2023-04-05T14:27:42;10.68;;;6.30;;
74963;SDS011;63521;51.900;4.748;2023-04-05T14:30:07;10.27;;;5.70;;
74963;SDS011;63521;51.900;4.748;2023-04-05T14:32:34;11.57;;;6.15;;
74963;SDS011;63521;51.900;4.748;2023-04-05T14:34:59;10.10;;;5.22;;
74963;SDS011;63521;51.900;4.748;2023-04-05T14:37:25;14.05;;;6.05;;
74963;SDS011;63521;51.900;4.748;2023-04-05T14:39:50;9.95;;;5.60;;
74963;SDS011;63521;51.900;4.748;2023-04-05T14:42:16;11.23;;;5.80;;
74963;SDS011;63521;51.900;4.748;2023-04-05T14:44:49;10.00;;;5.40;;
74963;SDS011;63521;51.900;4.748;2023-04-05T14:47:21;12.35;;;5.32;;
74963;SDS011;63521;51.900;4.748;2023-04-05T14:50:20;12.80;;;5.05;;
74963;SDS011;63521;51.900;4.748;2023-04-05T14:52:46;9.82;;;5.30;;
74963;SDS011;63521;51.900;4.748;2023-04-05T14:55:15;10.23;;;5.28;;
74963;SDS011;63521;51.900;4.748;2023-04-05T14:57:40;8.20;;;4.70;;
74963;SDS011;63521;51.900;4.748;2023-04-05T15:00:07;8.73;;;4.68;;
74963;SDS011;63521;51.900;4.748;2023-04-05T15:02:33;11.65;;;5.32;;
74963;SDS011;63521;51.900;4.748;2023-04-05T15:04:59;10.95;;;4.88;;
74963;SDS011;63521;51.900;4.748;2023-04-05T15:07:25;9.90;;;4.88;;
74963;SDS011;63521;51.900;4.748;2023-04-05T15:09:53;7.75;;;4.20;;
74963;SDS011;63521;51.900;4.748;2023-04-05T15:12:19;8.57;;;4.45;;
74963;SDS011;63521;51.900;4.748;2023-04-05T15:14:44;9.00;;;4.72;;
74963;SDS011;63521;51.900;4.748;2023-04-05T15:17:13;9.52;;;4.57;;
74963;SDS011;63521;51.900;4.748;2023-04-05T15:19:38;11.75;;;6.20;;
74963;SDS011;63521;51.900;4.748;2023-04-05T15:22:04;12.65;;;6.68;;
74963;SDS011;63521;51.900;4.748;2023-04-05T15:24:30;13.25;;;7.40;;
74963;SDS011;63521;51.900;4.748;2023-04-05T15:26:58;10.57;;;6.13;;
74963;SDS011;63521;51.900;4.748;2023-04-05T15:29:29;12.70;;;5.25;;